createdAt,value
2024-03-26T00:00:48.245Z,3.39
2024-03-26T00:03:38.534Z,3.27
2024-03-26T00:06:09.110Z,3.26
2024-03-26T00:08:39.527Z,3.28
2024-03-26T00:11:09.963Z,3.35
2024-03-26T00:13:40.247Z,3.41
2024-03-26T00:16:10.957Z,3.44
2024-03-26T00:18:41.408Z,3.47
2024-03-26T00:21:11.759Z,3.47
2024-03-26T00:23:42.146Z,3.39
2024-03-26T00:26:12.492Z,3.20
2024-03-26T00:28:44.045Z,3.08
2024-03-26T00:31:14.752Z,2.96
2024-03-26T00:33:45.233Z,2.98
2024-03-26T00:36:15.820Z,3.03
2024-03-26T00:38:46.056Z,3.08
2024-03-26T00:41:16.417Z,3.12
2024-03-26T00:43:46.822Z,3.11
2024-03-26T00:46:17.206Z,3.05
2024-03-26T00:48:47.597Z,2.98
2024-03-26T00:51:18.131Z,2.99
2024-03-26T00:53:48.333Z,3.00
2024-03-26T00:56:18.831Z,2.90
2024-03-26T00:58:49.178Z,2.77
2024-03-26T01:01:19.878Z,2.70
2024-03-26T01:03:53.613Z,2.67
2024-03-26T01:06:30.330Z,2.56
2024-03-26T01:09:00.710Z,2.39
2024-03-26T01:11:31.125Z,2.24
2024-03-26T01:14:01.471Z,2.13
2024-03-26T01:16:32.021Z,2.03
2024-03-26T01:19:02.766Z,1.92
2024-03-26T01:21:33.134Z,1.85
2024-03-26T01:24:03.636Z,1.82
2024-03-26T01:26:34.839Z,1.78
2024-03-26T01:29:05.235Z,1.77
2024-03-26T01:31:35.507Z,1.74
2024-03-26T01:34:05.741Z,1.73
2024-03-26T01:36:36.243Z,1.65
2024-03-26T01:39:06.724Z,1.61
2024-03-26T01:41:37.278Z,1.65
2024-03-26T01:44:07.860Z,1.71
2024-03-26T01:46:39.199Z,1.73
2024-03-26T01:49:11.968Z,1.77
2024-03-26T01:51:44.551Z,1.81
2024-03-26T01:54:15.592Z,1.85
2024-03-26T01:56:45.089Z,1.93
2024-03-26T01:59:16.608Z,1.99
2024-03-26T02:01:46.150Z,2.04
2024-03-26T02:04:17.395Z,1.94
2024-03-26T02:06:48.156Z,1.84
2024-03-26T02:09:18.482Z,1.76
2024-03-26T02:11:48.773Z,1.68
2024-03-26T02:14:19.235Z,1.61
2024-03-26T02:16:49.606Z,1.63
2024-03-26T02:19:23.604Z,1.66
2024-03-26T02:21:54.185Z,1.64
2024-03-26T02:24:24.900Z,1.57
2024-03-26T02:26:55.148Z,1.51
2024-03-26T02:29:25.578Z,1.47
2024-03-26T02:31:55.893Z,1.49
2024-03-26T02:34:26.474Z,1.49
2024-03-26T02:36:57.036Z,1.51
2024-03-26T02:39:27.555Z,1.49
2024-03-26T02:41:58.263Z,1.46
2024-03-26T02:44:28.768Z,1.43
2024-03-26T02:46:59.090Z,1.44
2024-03-26T02:49:29.620Z,1.50
2024-03-26T02:51:59.989Z,1.51
2024-03-26T02:54:30.677Z,1.53
2024-03-26T02:57:01.163Z,1.56
2024-03-26T02:59:32.169Z,1.65
2024-03-26T03:02:00.960Z,1.73
2024-03-26T03:04:31.484Z,1.77
2024-03-26T03:07:01.999Z,1.82
2024-03-26T03:09:32.387Z,1.89
2024-03-26T03:12:02.692Z,1.95
2024-03-26T03:14:32.955Z,1.97
2024-03-26T03:17:03.321Z,1.99
2024-03-26T03:19:33.734Z,2.00
2024-03-26T03:22:04.548Z,1.95
2024-03-26T03:24:35.134Z,1.86
2024-03-26T03:27:06.104Z,1.72
2024-03-26T03:29:36.613Z,1.63
2024-03-26T03:32:08.795Z,1.57
2024-03-26T03:34:39.366Z,1.46
2024-03-26T03:37:09.881Z,1.42
2024-03-26T03:39:40.176Z,1.39
2024-03-26T03:42:10.731Z,1.36
2024-03-26T03:44:41.234Z,1.35
2024-03-26T03:47:11.625Z,1.32
2024-03-26T03:49:42.249Z,1.29
2024-03-26T03:52:13.074Z,1.23
2024-03-26T03:54:43.833Z,1.19
2024-03-26T03:57:14.149Z,1.18
2024-03-26T03:59:45.839Z,1.15
2024-03-26T04:02:16.422Z,1.16
2024-03-26T04:04:48.407Z,1.17
2024-03-26T04:07:18.956Z,1.14
2024-03-26T04:09:49.255Z,1.08
2024-03-26T04:12:19.561Z,1.08
2024-03-26T04:14:50.272Z,1.09
2024-03-26T04:17:20.637Z,1.07
2024-03-26T04:19:51.018Z,1.05
2024-03-26T04:22:21.426Z,1.01
2024-03-26T04:24:51.724Z,0.97
2024-03-26T04:27:22.130Z,0.97
2024-03-26T04:29:53.128Z,0.99
2024-03-26T04:32:23.500Z,1.02
2024-03-26T04:34:53.993Z,1.02
2024-03-26T04:37:26.739Z,1.01
2024-03-26T04:39:57.136Z,1.02
2024-03-26T04:42:27.422Z,1.05
2024-03-26T04:44:58.061Z,1.06
2024-03-26T04:47:28.531Z,1.05
2024-03-26T04:49:59.024Z,1.06
2024-03-26T04:52:29.577Z,1.09
2024-03-26T04:55:00.234Z,1.09
2024-03-26T04:57:30.651Z,1.10
2024-03-26T05:00:01.132Z,1.11
2024-03-26T05:02:31.728Z,1.13
2024-03-26T05:05:02.145Z,1.16
2024-03-26T05:07:33.927Z,1.17
2024-03-26T05:10:09.186Z,1.20
2024-03-26T05:12:40.731Z,1.23
2024-03-26T05:15:12.548Z,1.28
2024-03-26T05:17:42.894Z,1.32
2024-03-26T05:20:14.580Z,1.36
2024-03-26T05:22:44.985Z,1.37
2024-03-26T05:25:15.492Z,1.42
2024-03-26T05:27:45.863Z,1.48
2024-03-26T05:30:17.035Z,1.52
2024-03-26T05:32:47.550Z,1.55
2024-03-26T05:35:17.933Z,1.61
2024-03-26T05:37:50.085Z,1.66
2024-03-26T05:40:20.546Z,1.66
2024-03-26T05:42:51.060Z,1.64
2024-03-26T05:45:21.449Z,1.65
2024-03-26T05:47:53.419Z,1.76
2024-03-26T05:50:23.868Z,1.82
2024-03-26T05:52:54.242Z,1.87
2024-03-26T05:55:24.490Z,1.97
2024-03-26T05:57:54.883Z,2.06
2024-03-26T06:00:25.257Z,2.17
2024-03-26T06:02:55.796Z,2.24
2024-03-26T06:05:26.453Z,2.34
2024-03-26T06:07:56.718Z,2.45
2024-03-26T06:10:27.148Z,2.57
2024-03-26T06:12:57.608Z,2.63
2024-03-26T06:15:28.001Z,2.72
2024-03-26T06:17:58.411Z,2.81
2024-03-26T06:20:28.693Z,2.90
2024-03-26T06:22:59.120Z,3.02
2024-03-26T06:25:30.368Z,3.15
2024-03-26T06:28:14.306Z,3.29
2024-03-26T06:30:44.603Z,3.42
2024-03-26T06:33:15.367Z,3.45
2024-03-26T06:35:46.100Z,3.51
2024-03-26T06:38:16.763Z,3.60
2024-03-26T06:40:48.095Z,3.66
2024-03-26T06:43:19.068Z,3.72
2024-03-26T06:45:48.250Z,3.81
2024-03-26T06:48:18.489Z,3.96
2024-03-26T06:50:50.364Z,4.10
2024-03-26T06:53:21.319Z,4.25
2024-03-26T06:55:51.716Z,4.38
2024-03-26T06:58:22.116Z,4.53
2024-03-26T07:00:52.807Z,4.70
2024-03-26T07:03:23.204Z,4.89
2024-03-26T07:05:53.606Z,5.09
2024-03-26T07:08:25.737Z,5.30
2024-03-26T07:10:56.813Z,5.47
2024-03-26T07:13:25.537Z,5.62
2024-03-26T07:15:55.883Z,5.68
2024-03-26T07:18:26.331Z,5.75
2024-03-26T07:20:56.896Z,5.91
2024-03-26T07:23:28.303Z,6.11
2024-03-26T07:25:59.419Z,6.26
2024-03-26T07:28:28.188Z,6.40
2024-03-26T07:30:59.094Z,6.57
2024-03-26T07:33:30.094Z,6.77
2024-03-26T07:36:02.060Z,6.97
2024-03-26T07:38:33.012Z,7.08
2024-03-26T07:41:04.066Z,7.16
2024-03-26T07:43:34.566Z,7.22
2024-03-26T07:46:05.710Z,7.32
2024-03-26T07:48:34.544Z,7.45
2024-03-26T07:51:09.209Z,7.55
2024-03-26T07:53:40.143Z,7.69
2024-03-26T07:56:10.675Z,7.82
2024-03-26T07:58:41.734Z,7.96
2024-03-26T08:01:12.446Z,8.10
2024-03-26T08:03:43.105Z,8.21
2024-03-26T08:06:13.627Z,8.33
2024-03-26T08:08:46.414Z,8.43
2024-03-26T08:11:17.071Z,8.50
2024-03-26T08:13:48.130Z,8.58
2024-03-26T08:16:19.304Z,8.64
2024-03-26T08:18:49.723Z,8.72
2024-03-26T08:21:20.150Z,8.81
2024-03-26T08:23:50.869Z,8.89
2024-03-26T08:26:21.329Z,9.01
2024-03-26T08:28:51.799Z,9.15
2024-03-26T08:31:22.201Z,9.24
2024-03-26T08:33:52.916Z,9.35
2024-03-26T08:36:23.363Z,9.46
2024-03-26T08:38:53.786Z,9.59
2024-03-26T08:41:24.795Z,9.67
2024-03-26T08:43:54.547Z,9.66
2024-03-26T08:46:25.120Z,9.70
2024-03-26T08:48:55.683Z,9.78
2024-03-26T08:51:25.981Z,9.84
2024-03-26T08:53:56.418Z,9.92
2024-03-26T08:56:27.685Z,9.96
2024-03-26T08:58:58.021Z,10.05
2024-03-26T09:01:28.417Z,10.06
2024-03-26T09:03:58.848Z,10.13
2024-03-26T09:06:29.300Z,10.09
2024-03-26T09:08:59.709Z,10.15
2024-03-26T09:11:30.748Z,10.22
2024-03-26T09:13:59.567Z,10.24
2024-03-26T09:16:30.188Z,10.34
2024-03-26T09:19:01.781Z,10.47
2024-03-26T09:21:33.608Z,10.58
2024-03-26T09:24:04.160Z,10.62
2024-03-26T09:26:34.604Z,10.59
2024-03-26T09:29:05.356Z,10.65
2024-03-26T09:31:35.942Z,10.69
2024-03-26T09:34:06.384Z,10.74
2024-03-26T09:36:37.927Z,10.79
2024-03-26T09:39:10.564Z,10.91
2024-03-26T09:41:42.146Z,10.99
2024-03-26T09:44:13.601Z,11.06
2024-03-26T09:46:45.723Z,11.19
2024-03-26T09:49:18.236Z,11.34
2024-03-26T09:51:51.876Z,11.48
2024-03-26T09:54:23.412Z,11.61
2024-03-26T09:56:55.029Z,11.61
2024-03-26T09:59:26.052Z,11.52
2024-03-26T10:01:58.465Z,11.53
2024-03-26T10:04:29.071Z,11.59
2024-03-26T10:06:59.678Z,11.66
2024-03-26T10:09:30.962Z,11.72
2024-03-26T10:12:01.560Z,11.70
2024-03-26T10:14:32.331Z,11.74
2024-03-26T10:17:01.354Z,11.85
2024-03-26T10:19:31.709Z,11.91
2024-03-26T10:22:02.518Z,11.91
2024-03-26T10:24:33.327Z,11.85
2024-03-26T10:27:04.193Z,12.01
2024-03-26T10:29:36.476Z,12.13
2024-03-26T10:32:07.405Z,12.28
2024-03-26T10:34:39.085Z,12.46
2024-03-26T10:37:10.721Z,12.53
2024-03-26T10:39:47.140Z,12.51
2024-03-26T10:42:20.343Z,12.50
2024-03-26T10:44:51.237Z,12.58
2024-03-26T10:47:22.784Z,12.70
2024-03-26T10:49:54.228Z,12.79
2024-03-26T10:52:26.947Z,12.81
2024-03-26T10:54:59.312Z,12.83
2024-03-26T10:57:31.255Z,12.90
2024-03-26T11:00:02.587Z,12.86
2024-03-26T11:02:33.685Z,12.89
2024-03-26T11:05:02.971Z,12.93
2024-03-26T11:07:36.040Z,12.96
2024-03-26T11:10:12.500Z,13.05
2024-03-26T11:12:43.563Z,13.22
2024-03-26T11:15:19.933Z,13.29
2024-03-26T11:17:59.524Z,13.13
2024-03-26T11:20:32.102Z,13.00
2024-03-26T11:23:04.616Z,13.01
2024-03-26T11:25:35.796Z,12.96
2024-03-26T11:28:06.951Z,12.93
2024-03-26T11:30:37.910Z,12.97
2024-03-26T11:33:07.057Z,13.05
2024-03-26T11:35:37.720Z,13.13
2024-03-26T11:38:08.772Z,13.17
2024-03-26T11:40:40.696Z,13.20
2024-03-26T11:43:11.172Z,13.21
2024-03-26T11:45:41.912Z,13.26
2024-03-26T11:48:16.295Z,13.34
2024-03-26T11:50:47.404Z,13.46
2024-03-26T11:53:17.826Z,13.54
2024-03-26T11:55:49.467Z,13.61
2024-03-26T11:58:26.668Z,13.65
2024-03-26T12:00:56.989Z,13.69
2024-03-26T12:03:27.668Z,13.74
2024-03-26T12:05:57.006Z,13.76
2024-03-26T12:08:27.789Z,13.70
2024-03-26T12:10:58.187Z,13.61
2024-03-26T12:13:28.763Z,13.67
2024-03-26T12:15:59.187Z,13.80
2024-03-26T12:18:33.617Z,13.90
2024-03-26T12:21:06.345Z,13.89
2024-03-26T12:23:36.867Z,13.83
2024-03-26T12:26:07.939Z,13.86
2024-03-26T12:28:41.770Z,13.85
2024-03-26T12:31:12.733Z,13.82
2024-03-26T12:33:43.511Z,13.86
2024-03-26T12:36:15.894Z,13.93
2024-03-26T12:38:44.752Z,14.02
2024-03-26T12:41:15.329Z,14.10
2024-03-26T12:43:45.867Z,14.15
2024-03-26T12:46:16.316Z,14.22
2024-03-26T12:48:46.703Z,14.32
2024-03-26T12:51:17.511Z,14.37
2024-03-26T12:53:48.012Z,14.42
2024-03-26T12:56:18.537Z,14.48
2024-03-26T12:58:49.106Z,14.44
2024-03-26T13:01:19.531Z,14.50
2024-03-26T13:03:50.712Z,14.51
2024-03-26T13:06:21.352Z,14.51
2024-03-26T13:08:52.399Z,14.51
2024-03-26T13:11:23.367Z,14.46
2024-03-26T13:13:54.474Z,14.50
2024-03-26T13:16:25.050Z,14.57
2024-03-26T13:18:55.536Z,14.69
2024-03-26T13:21:26.176Z,14.78
2024-03-26T13:23:57.161Z,14.73
2024-03-26T13:26:27.949Z,14.78
2024-03-26T13:28:58.397Z,14.80
2024-03-26T13:31:28.967Z,14.80
2024-03-26T13:33:59.827Z,14.79
2024-03-26T13:36:28.626Z,14.83
2024-03-26T13:38:59.948Z,14.93
2024-03-26T13:41:30.444Z,15.03
2024-03-26T13:44:01.716Z,15.05
2024-03-26T13:46:32.148Z,15.06
2024-03-26T13:49:03.420Z,15.03
2024-03-26T13:51:33.764Z,14.98
2024-03-26T13:54:06.695Z,14.95
2024-03-26T13:56:38.732Z,14.96
2024-03-26T13:59:10.649Z,14.97
2024-03-26T14:01:41.229Z,15.03
2024-03-26T14:04:11.582Z,15.08
2024-03-26T14:06:42.249Z,15.05
2024-03-26T14:09:13.503Z,15.06
2024-03-26T14:11:44.327Z,15.02
2024-03-26T14:14:15.026Z,14.94
2024-03-26T14:16:45.341Z,14.87
2024-03-26T14:19:15.873Z,14.74
2024-03-26T14:21:46.391Z,14.61
2024-03-26T14:24:16.647Z,14.66
2024-03-26T14:26:47.130Z,14.76
2024-03-26T14:29:17.690Z,14.85
2024-03-26T14:31:48.310Z,14.83
2024-03-26T14:34:24.668Z,14.74
2024-03-26T14:36:55.028Z,14.68
2024-03-26T14:39:25.503Z,14.72
2024-03-26T14:41:55.851Z,14.79
2024-03-26T14:44:26.356Z,14.80
2024-03-26T14:46:57.183Z,14.75
2024-03-26T14:49:27.575Z,14.70
2024-03-26T14:51:58.020Z,14.66
2024-03-26T14:54:28.772Z,14.59
2024-03-26T14:56:57.756Z,14.52
2024-03-26T14:59:28.486Z,14.44
2024-03-26T15:01:58.823Z,14.37
2024-03-26T15:04:29.300Z,14.31
2024-03-26T15:06:59.711Z,14.28
2024-03-26T15:09:30.272Z,14.25
2024-03-26T15:12:00.800Z,14.23
2024-03-26T15:14:31.608Z,14.17
2024-03-26T15:17:01.987Z,14.13
2024-03-26T15:27:32.413Z,14.00
2024-03-26T15:30:07.071Z,13.95
2024-03-26T15:33:14.567Z,13.93
2024-03-26T15:36:42.292Z,13.87
2024-03-26T15:39:16.511Z,13.84
2024-03-26T15:42:09.508Z,13.88
2024-03-26T15:44:40.495Z,13.90
2024-03-26T15:47:11.211Z,13.91
2024-03-26T15:49:41.784Z,13.89
2024-03-26T15:52:12.474Z,13.88
2024-03-26T15:55:08.474Z,13.87
2024-03-26T15:57:39.011Z,13.83
2024-03-26T16:00:13.879Z,13.79
2024-03-26T16:05:21.814Z,13.76
2024-03-26T16:06:06.017Z,13.71
2024-03-26T16:08:48.573Z,13.66
2024-03-26T16:11:22.495Z,13.63
2024-03-26T16:13:53.277Z,13.60
2024-03-26T16:16:23.882Z,13.56
2024-03-26T16:18:54.290Z,13.51
2024-03-26T16:21:24.937Z,13.47
2024-03-26T16:23:55.492Z,13.41
2024-03-26T16:26:25.731Z,13.36
2024-03-26T16:28:58.662Z,13.31
2024-03-26T16:31:30.156Z,13.26
2024-03-26T16:34:02.048Z,13.20
2024-03-26T16:37:03.782Z,13.13
2024-03-26T16:39:34.734Z,13.06
2024-03-26T16:42:06.054Z,13.01
2024-03-26T16:45:02.917Z,12.95
2024-03-26T16:47:33.933Z,12.88
2024-03-26T16:50:05.132Z,12.83
2024-03-26T16:52:38.168Z,12.77
2024-03-26T16:55:37.306Z,12.71
2024-03-26T16:58:32.153Z,12.63
2024-03-26T17:01:03.704Z,12.58
2024-03-26T17:03:34.108Z,12.52
2024-03-26T17:06:11.438Z,12.45
2024-03-26T17:08:44.422Z,12.40
2024-03-26T17:11:14.932Z,12.36
2024-03-26T17:13:45.703Z,12.31
2024-03-26T17:16:16.019Z,12.25
2024-03-26T17:18:46.518Z,12.20
2024-03-26T17:21:16.939Z,12.15
2024-03-26T17:24:08.685Z,12.09
2024-03-26T17:26:39.156Z,12.02
2024-03-26T17:29:09.459Z,11.97
2024-03-26T17:31:39.914Z,11.92
2024-03-26T17:34:10.372Z,11.89
2024-03-26T17:36:40.818Z,11.85
2024-03-26T17:39:11.968Z,11.81
2024-03-26T17:41:42.418Z,11.77
2024-03-26T17:44:12.819Z,11.74
2024-03-26T17:46:43.173Z,11.69
2024-03-26T17:49:13.818Z,11.65
2024-03-26T17:51:46.506Z,11.61
2024-03-26T17:54:17.012Z,11.57
2024-03-26T17:56:48.307Z,11.53
2024-03-26T17:59:19.215Z,11.52
2024-03-26T18:01:50.319Z,11.49
2024-03-26T18:04:22.178Z,11.45
2024-03-26T18:06:55.812Z,11.42
2024-03-26T18:09:28.934Z,11.37
2024-03-26T18:12:00.280Z,11.32
2024-03-26T18:14:30.609Z,11.28
2024-03-26T18:17:00.870Z,11.23
2024-03-26T18:19:31.383Z,11.20
2024-03-26T18:22:01.690Z,11.15
2024-03-26T18:24:34.209Z,11.12
2024-03-26T18:27:04.680Z,11.09
2024-03-26T18:29:37.727Z,11.05
2024-03-26T18:32:10.124Z,11.02
2024-03-26T18:34:41.071Z,11.00
2024-03-26T18:37:45.705Z,10.97
2024-03-26T18:40:06.445Z,10.94
2024-03-26T18:42:36.877Z,10.91
2024-03-26T18:45:11.602Z,10.88
2024-03-26T18:47:42.127Z,10.85
2024-03-26T18:50:37.718Z,10.83
2024-03-26T18:53:06.014Z,10.81
2024-03-26T18:55:36.469Z,10.79
2024-03-26T18:58:08.922Z,10.78
2024-03-26T19:00:39.721Z,10.76
2024-03-26T19:03:10.233Z,10.75
2024-03-26T19:05:47.256Z,10.73
2024-03-26T19:08:25.182Z,10.71
2024-03-26T19:11:25.392Z,10.70
2024-03-26T19:13:54.099Z,10.69
2024-03-26T19:16:24.445Z,10.67
2024-03-26T19:18:54.959Z,10.65
2024-03-26T19:21:26.856Z,10.63
2024-03-26T19:23:57.497Z,10.60
2024-03-26T19:26:28.132Z,10.57
2024-03-26T19:28:58.693Z,10.54
2024-03-26T19:31:30.270Z,10.54
2024-03-26T19:34:00.940Z,10.51
2024-03-26T19:36:33.841Z,10.49
2024-03-26T19:39:04.504Z,10.48
2024-03-26T19:41:34.952Z,10.46
2024-03-26T19:44:06.472Z,10.44
2024-03-26T19:46:37.428Z,10.43
2024-03-26T19:49:10.568Z,10.40
2024-03-26T19:51:40.959Z,10.38
2024-03-26T19:54:11.571Z,10.37
2024-03-26T19:56:41.975Z,10.35
2024-03-26T19:59:13.729Z,10.34
2024-03-26T20:01:44.074Z,10.32
2024-03-26T20:04:14.612Z,10.31
2024-03-26T20:06:45.029Z,10.31
2024-03-26T20:09:20.591Z,10.29
2024-03-26T20:11:50.945Z,10.28
2024-03-26T20:14:44.986Z,10.27
2024-03-26T20:17:14.798Z,10.25
2024-03-26T20:19:47.022Z,10.23
2024-03-26T20:22:19.962Z,10.21
2024-03-26T20:24:50.366Z,10.18
2024-03-26T20:27:37.501Z,10.16
2024-03-26T20:30:14.110Z,10.13
2024-03-26T20:32:46.503Z,10.10
2024-03-26T20:35:18.416Z,10.05
2024-03-26T20:37:49.226Z,10.02
2024-03-26T20:40:19.862Z,10.01
2024-03-26T20:42:50.104Z,9.97
2024-03-26T20:45:20.842Z,9.94
2024-03-26T20:47:51.969Z,9.92
2024-03-26T20:50:22.430Z,9.90
2024-03-26T20:52:54.133Z,9.88
2024-03-26T20:55:54.450Z,9.86
2024-03-26T20:58:25.300Z,9.83
2024-03-26T21:00:55.820Z,9.79
2024-03-26T21:03:27.139Z,9.76
2024-03-26T21:06:22.318Z,9.73
2024-03-26T21:08:50.784Z,9.71
2024-03-26T21:11:21.238Z,9.69
2024-03-26T21:13:54.153Z,9.66
2024-03-26T21:16:24.549Z,9.65
2024-03-26T21:18:55.038Z,9.63
2024-03-26T21:21:25.619Z,9.59
2024-03-26T21:23:56.153Z,9.56
2024-03-26T21:26:26.818Z,9.54
2024-03-26T21:28:57.078Z,9.50
2024-03-26T21:31:28.643Z,9.43
2024-03-26T21:33:59.307Z,9.38
2024-03-26T21:36:29.763Z,9.32
2024-03-26T21:39:00.129Z,9.26
2024-03-26T21:41:30.738Z,9.21
2024-03-26T21:44:02.091Z,9.17
2024-03-26T21:46:32.499Z,9.12
2024-03-26T21:49:02.818Z,9.06
2024-03-26T21:51:33.408Z,9.00
2024-03-26T21:54:03.864Z,8.96
2024-03-26T21:56:54.936Z,8.90
2024-03-26T21:59:25.593Z,8.89
2024-03-26T22:01:56.168Z,8.84
2024-03-26T22:04:27.171Z,8.82
2024-03-26T22:06:57.679Z,8.76
2024-03-26T22:09:28.086Z,8.73
2024-03-26T22:11:58.405Z,8.71
2024-03-26T22:14:28.923Z,8.69
2024-03-26T22:16:59.212Z,8.68
2024-03-26T22:19:29.497Z,8.66
2024-03-26T22:21:59.863Z,8.65
2024-03-26T22:24:30.316Z,8.64
2024-03-26T22:27:01.378Z,8.64
2024-03-26T22:29:30.349Z,8.64
2024-03-26T22:32:01.242Z,8.64
2024-03-26T22:34:32.874Z,8.64
2024-03-26T22:37:03.412Z,8.64
2024-03-26T22:39:33.804Z,8.65
2024-03-26T22:42:04.854Z,8.65
2024-03-26T22:44:33.919Z,8.66
2024-03-26T22:47:04.647Z,8.66
2024-03-26T22:49:34.882Z,8.66
2024-03-26T22:52:07.439Z,8.67
2024-03-26T22:54:37.967Z,8.68
2024-03-26T22:57:08.833Z,8.69
2024-03-26T23:02:56.008Z,8.72
2024-03-26T23:05:26.517Z,8.70
2024-03-26T23:07:56.871Z,8.70
2024-03-26T23:10:27.442Z,8.72
2024-03-26T23:12:57.955Z,8.73
2024-03-26T23:15:28.307Z,8.73
2024-03-26T23:17:58.810Z,8.74
2024-03-26T23:20:29.363Z,8.76
2024-03-26T23:23:09.877Z,8.76
2024-03-26T23:25:40.285Z,8.78
2024-03-26T23:28:10.936Z,8.78
2024-03-26T23:30:41.337Z,8.78
2024-03-26T23:33:12.311Z,8.79
2024-03-26T23:35:42.729Z,8.80
2024-03-26T23:38:13.290Z,8.82
2024-03-26T23:40:43.726Z,8.82
2024-03-26T23:43:14.038Z,8.81
2024-03-26T23:45:44.468Z,8.82
2024-03-26T23:48:15.333Z,8.83
2024-03-26T23:50:45.637Z,8.83
2024-03-26T23:53:16.057Z,8.83
2024-03-26T23:55:46.739Z,8.83
2024-03-26T23:58:17.238Z,8.83
